الصفحة الرئيسية
METAR-TAF:

METAR-TAF

مطار :

فلاديفوستوك, روسيا

دائرة عرض: 43-07N, خط طول: 131-56E, ارتفاع: 184 متر

مراقبة الطقس الحالي

تاريخ ووقت الإصدار 13 دقيقة قبل الساعة 21:00UTC
ريح 6 عقدة من الشمال الشرقي
درجة الحرارة 11°درجة مئوية
الرطوبة 94%
ضغط 1017 hPa
الرؤية 10 كم أو أكثر

METAR: UHWW 292100Z 04003MPS 9999 NSC 11/10 Q1017 R25L/0///70 NOSIG RMK QFE761

زمن: 07:13 (21:13 UTC)

توقعات

تاريخ ووقت الإصدار 1ساعة و 18 دقيقة قبل الساعة 19:55UTC
التوقعات صالحة من29 الساعة 21 UTC إلى 30 الساعة 21 UTC
ريح 2 عقدةمن اتجاهات متغيرة
الرؤية: 3100 متر
غيوم متفرقة على ارتفاع 1100 قدم
غشاء
من 29 الساعة 2300 UTC
ريح 6 عقدة من الجنوب/الجنوب الغربي
الرؤية 10 كم أو أكثر
غيوم متفرقة على ارتفاع 3000 قدم
مؤقت
من 30 الساعة 01 UTC إلى 30 الساعة 12 UTC
ريح 16 عقدة من الجنوب/الجنوب الغربي تتزايد حتى 25 عقدة
غيوم مفككة على ارتفاع 2000 قدم

TAF: UHWW 291955Z 2921/3021 VRB01MPS 3100 BR SCT011 FM292300 20003MPS 9999 SCT030 TEMPO 3001/3012 20008G13MPS BKN020

أرصاد الطقس والتوقعات من أكثر من 4000 مطار (تقارير الطقس للمطار METAR والتنبؤ بالطقس بالمطارTAF).

المحطات المتاحة هي النقط الصفراء والحمراء على الخريطة.

حرك المؤشر فوق النقطة لمعرفة اسم المحطة.

ثم انقر لمعرفة أرصاد وتوقعات الطقس.

لتغيير الخارطة: اضغط على الأزرار الخضراء مع رمز الصليب الأسود للتكبير. على الزر الأخضر مع شرطة للتصغير، أو على الأسهم الخضراء للخرائط المجاورة.


METAR-TAF: